Red Wing, Minnesota
Current Conditions -  °F | °C
As of 5:14 AM on Thursday 23 Oct 2014 (Local Time) from KSYN Reporting Station
Drizzle Drizzle  
Wind Chill: 51°   Ceiling: 1400
Heat Index: 51°   Visibility: 5mi
Dew Point: 48°   Wind: 7mph
Humidity: 89%   Direction: 200°SSW
Pressure: 30"   Gusts: NA
Location:  44.57°N, 92.53°W
Report Text: KSYN 231014Z AUTO 20006KT 5SM -DZ OVC014 11/09 A3000 RMK AO2 T01060088
Loading
Personal Weather Stations






























Interactive Weather Map
Tropical Storm Tracking
New forecast layout! Learn more

10-Day Weather Forecast

Advertisements
Track Severe Weather on mobile